Riverside, Ohio
Current Conditions -  °F | °C
As of 6:58 AM on Monday 20 Oct 2014 (Local Time) from KFFO Reporting Station
Few Clouds Few Clouds  
Wind Chill: 46°   Ceiling: Unl
Heat Index: 48°   Visibility: 10mi
Dew Point: 43°   Wind: 5mph
Humidity: 83%   Direction: 200°SSW
Pressure: 29.98"   Gusts: NA
Location:  39.7649°N, 84.0863°W
Report Text: KFFO 201058Z AUTO 20004KT 10SM FEW095 09/06 A2998 RMK AO2 SLP157 T00870060
Loading
Personal Weather Stations






























Interactive Weather Map
Tropical Storm Tracking
New forecast layout! Learn more

10-Day Weather Forecast

Advertisements
Track Severe Weather on mobile